sensor_id;sensor_type;location;lat;lon;timestamp;P1;durP1;ratioP1;P2;durP2;ratioP2
53710;SDS011;39605;52.704;6.752;2024-03-23T00:53:26;28.17;;;8.02;;
53710;SDS011;39605;52.704;6.752;2024-03-23T00:55:52;35.67;;;7.93;;
53710;SDS011;39605;52.704;6.752;2024-03-23T00:58:18;29.42;;;7.50;;
53710;SDS011;39605;52.704;6.752;2024-03-23T01:00:44;30.88;;;7.28;;
53710;SDS011;39605;52.704;6.752;2024-03-23T01:03:10;33.90;;;7.97;;
53710;SDS011;39605;52.704;6.752;2024-03-23T01:05:36;30.30;;;7.63;;
53710;SDS011;39605;52.704;6.752;2024-03-23T01:08:02;28.90;;;7.55;;
53710;SDS011;39605;52.704;6.752;2024-03-23T01:10:28;28.45;;;7.88;;
53710;SDS011;39605;52.704;6.752;2024-03-23T01:12:54;32.65;;;7.45;;
53710;SDS011;39605;52.704;6.752;2024-03-23T01:15:20;31.45;;;7.95;;
53710;SDS011;39605;52.704;6.752;2024-03-23T01:17:46;34.38;;;7.93;;
53710;SDS011;39605;52.704;6.752;2024-03-23T01:20:12;31.83;;;7.45;;
53710;SDS011;39605;52.704;6.752;2024-03-23T01:22:38;42.63;;;8.20;;
53710;SDS011;39605;52.704;6.752;2024-03-23T01:25:04;27.52;;;7.68;;
53710;SDS011;39605;52.704;6.752;2024-03-23T01:27:30;36.03;;;8.00;;
53710;SDS011;39605;52.704;6.752;2024-03-23T01:29:56;26.90;;;7.65;;
53710;SDS011;39605;52.704;6.752;2024-03-23T01:32:23;33.88;;;7.90;;
53710;SDS011;39605;52.704;6.752;2024-03-23T01:34:49;34.42;;;7.47;;
53710;SDS011;39605;52.704;6.752;2024-03-23T01:37:15;33.90;;;7.80;;
53710;SDS011;39605;52.704;6.752;2024-03-23T01:39:41;34.25;;;7.93;;
53710;SDS011;39605;52.704;6.752;2024-03-23T01:42:07;27.45;;;7.32;;
53710;SDS011;39605;52.704;6.752;2024-03-23T01:44:33;31.17;;;7.05;;
53710;SDS011;39605;52.704;6.752;2024-03-23T01:46:59;27.60;;;7.45;;
53710;SDS011;39605;52.704;6.752;2024-03-23T01:49:25;31.80;;;7.55;;
53710;SDS011;39605;52.704;6.752;2024-03-23T01:51:51;34.90;;;8.15;;
53710;SDS011;39605;52.704;6.752;2024-03-23T01:54:17;31.92;;;7.72;;
53710;SDS011;39605;52.704;6.752;2024-03-23T01:56:43;34.53;;;8.05;;
53710;SDS011;39605;52.704;6.752;2024-03-23T01:59:09;24.45;;;7.97;;
53710;SDS011;39605;52.704;6.752;2024-03-23T02:01:35;36.13;;;8.93;;
53710;SDS011;39605;52.704;6.752;2024-03-23T02:04:01;31.10;;;9.27;;
53710;SDS011;39605;52.704;6.752;2024-03-23T02:06:28;36.08;;;9.35;;
53710;SDS011;39605;52.704;6.752;2024-03-23T02:08:57;35.22;;;9.13;;
53710;SDS011;39605;52.704;6.752;2024-03-23T02:11:23;29.00;;;8.38;;
53710;SDS011;39605;52.704;6.752;2024-03-23T02:13:49;31.40;;;8.15;;
53710;SDS011;39605;52.704;6.752;2024-03-23T02:16:15;32.92;;;8.25;;
53710;SDS011;39605;52.704;6.752;2024-03-23T02:18:41;28.65;;;7.43;;
53710;SDS011;39605;52.704;6.752;2024-03-23T02:21:07;36.55;;;8.20;;
53710;SDS011;39605;52.704;6.752;2024-03-23T02:23:33;33.90;;;8.20;;
53710;SDS011;39605;52.704;6.752;2024-03-23T02:25:59;33.55;;;8.15;;
53710;SDS011;39605;52.704;6.752;2024-03-23T02:28:25;31.30;;;7.43;;
53710;SDS011;39605;52.704;6.752;2024-03-23T02:30:52;31.58;;;7.78;;
53710;SDS011;39605;52.704;6.752;2024-03-23T02:33:18;28.42;;;7.35;;
53710;SDS011;39605;52.704;6.752;2024-03-23T02:35:44;36.47;;;8.85;;
53710;SDS011;39605;52.704;6.752;2024-03-23T02:38:11;31.88;;;8.15;;
53710;SDS011;39605;52.704;6.752;2024-03-23T02:40:37;35.42;;;8.00;;
53710;SDS011;39605;52.704;6.752;2024-03-23T02:43:03;33.67;;;8.05;;
53710;SDS011;39605;52.704;6.752;2024-03-23T02:45:29;34.38;;;7.47;;
53710;SDS011;39605;52.704;6.752;2024-03-23T02:47:55;32.53;;;8.57;;
53710;SDS011;39605;52.704;6.752;2024-03-23T02:50:22;32.25;;;8.05;;
53710;SDS011;39605;52.704;6.752;2024-03-23T02:52:48;30.45;;;8.02;;
53710;SDS011;39605;52.704;6.752;2024-03-23T02:55:14;33.72;;;7.97;;
53710;SDS011;39605;52.704;6.752;2024-03-23T02:57:40;27.17;;;7.45;;
53710;SDS011;39605;52.704;6.752;2024-03-23T03:00:07;22.25;;;6.40;;
53710;SDS011;39605;52.704;6.752;2024-03-23T03:02:34;29.25;;;8.07;;
53710;SDS011;39605;52.704;6.752;2024-03-23T03:05:00;33.70;;;7.60;;
53710;SDS011;39605;52.704;6.752;2024-03-23T03:07:26;26.92;;;7.20;;
53710;SDS011;39605;52.704;6.752;2024-03-23T03:09:52;29.98;;;6.95;;
53710;SDS011;39605;52.704;6.752;2024-03-23T03:12:18;29.92;;;7.18;;
53710;SDS011;39605;52.704;6.752;2024-03-23T03:14:44;34.45;;;7.65;;
53710;SDS011;39605;52.704;6.752;2024-03-23T03:17:10;27.95;;;7.47;;
53710;SDS011;39605;52.704;6.752;2024-03-23T03:19:36;31.98;;;7.75;;
53710;SDS011;39605;52.704;6.752;2024-03-23T03:22:02;27.50;;;6.57;;
53710;SDS011;39605;52.704;6.752;2024-03-23T03:24:29;25.40;;;6.38;;
53710;SDS011;39605;52.704;6.752;2024-03-23T03:26:55;31.63;;;6.95;;
53710;SDS011;39605;52.704;6.752;2024-03-23T03:29:23;30.10;;;6.60;;
53710;SDS011;39605;52.704;6.752;2024-03-23T03:31:49;24.05;;;6.55;;
53710;SDS011;39605;52.704;6.752;2024-03-23T03:34:16;23.48;;;6.90;;
53710;SDS011;39605;52.704;6.752;2024-03-23T03:36:42;26.50;;;6.07;;
53710;SDS011;39605;52.704;6.752;2024-03-23T03:39:08;30.10;;;6.82;;
53710;SDS011;39605;52.704;6.752;2024-03-23T03:41:35;27.00;;;6.82;;
53710;SDS011;39605;52.704;6.752;2024-03-23T03:44:01;25.17;;;6.40;;
53710;SDS011;39605;52.704;6.752;2024-03-23T03:46:30;31.30;;;7.30;;
53710;SDS011;39605;52.704;6.752;2024-03-23T03:48:56;32.78;;;7.03;;
53710;SDS011;39605;52.704;6.752;2024-03-23T03:51:22;26.40;;;6.22;;
53710;SDS011;39605;52.704;6.752;2024-03-23T03:53:48;29.42;;;7.00;;
53710;SDS011;39605;52.704;6.752;2024-03-23T03:56:14;30.83;;;7.20;;
53710;SDS011;39605;52.704;6.752;2024-03-23T03:58:40;31.65;;;6.95;;
53710;SDS011;39605;52.704;6.752;2024-03-23T04:01:06;25.67;;;6.80;;
53710;SDS011;39605;52.704;6.752;2024-03-23T04:03:32;32.42;;;6.85;;
53710;SDS011;39605;52.704;6.752;2024-03-23T04:05:58;24.83;;;6.20;;
53710;SDS011;39605;52.704;6.752;2024-03-23T04:08:24;28.27;;;6.00;;
53710;SDS011;39605;52.704;6.752;2024-03-23T04:10:50;28.33;;;7.35;;
53710;SDS011;39605;52.704;6.752;2024-03-23T04:13:16;24.10;;;6.93;;
53710;SDS011;39605;52.704;6.752;2024-03-23T04:15:42;25.92;;;7.05;;
53710;SDS011;39605;52.704;6.752;2024-03-23T04:18:09;24.20;;;5.85;;
53710;SDS011;39605;52.704;6.752;2024-03-23T04:20:35;29.05;;;6.93;;
53710;SDS011;39605;52.704;6.752;2024-03-23T04:23:01;24.85;;;7.05;;
53710;SDS011;39605;52.704;6.752;2024-03-23T04:25:27;27.33;;;6.57;;
53710;SDS011;39605;52.704;6.752;2024-03-23T04:27:53;26.23;;;6.28;;
53710;SDS011;39605;52.704;6.752;2024-03-23T04:30:19;27.67;;;6.72;;
53710;SDS011;39605;52.704;6.752;2024-03-23T04:32:46;21.63;;;5.93;;
53710;SDS011;39605;52.704;6.752;2024-03-23T04:35:12;28.65;;;7.32;;
53710;SDS011;39605;52.704;6.752;2024-03-23T04:37:38;25.08;;;6.55;;
53710;SDS011;39605;52.704;6.752;2024-03-23T04:40:08;25.67;;;6.75;;
53710;SDS011;39605;52.704;6.752;2024-03-23T04:42:34;22.90;;;6.85;;
53710;SDS011;39605;52.704;6.752;2024-03-23T04:45:00;30.60;;;6.50;;
53710;SDS011;39605;52.704;6.752;2024-03-23T04:47:26;28.83;;;7.25;;
53710;SDS011;39605;52.704;6.752;2024-03-23T04:49:52;20.83;;;5.47;;
53710;SDS011;39605;52.704;6.752;2024-03-23T04:52:18;18.92;;;6.18;;
53710;SDS011;39605;52.704;6.752;2024-03-23T04:54:45;22.75;;;6.25;;
53710;SDS011;39605;52.704;6.752;2024-03-23T04:57:11;23.58;;;6.85;;
53710;SDS011;39605;52.704;6.752;2024-03-23T04:59:37;28.38;;;7.18;;
53710;SDS011;39605;52.704;6.752;2024-03-23T05:02:03;26.00;;;7.88;;
53710;SDS011;39605;52.704;6.752;2024-03-23T05:04:29;28.20;;;7.38;;
53710;SDS011;39605;52.704;6.752;2024-03-23T05:06:57;28.70;;;7.65;;
53710;SDS011;39605;52.704;6.752;2024-03-23T05:09:23;24.20;;;7.45;;
53710;SDS011;39605;52.704;6.752;2024-03-23T05:11:49;22.25;;;7.75;;
53710;SDS011;39605;52.704;6.752;2024-03-23T05:14:15;21.58;;;6.70;;
53710;SDS011;39605;52.704;6.752;2024-03-23T05:16:41;24.17;;;7.90;;
53710;SDS011;39605;52.704;6.752;2024-03-23T05:19:07;21.70;;;7.28;;
53710;SDS011;39605;52.704;6.752;2024-03-23T05:21:33;25.70;;;6.97;;
53710;SDS011;39605;52.704;6.752;2024-03-23T05:23:59;21.25;;;7.13;;
53710;SDS011;39605;52.704;6.752;2024-03-23T05:26:25;28.40;;;7.72;;
53710;SDS011;39605;52.704;6.752;2024-03-23T05:28:52;28.98;;;7.40;;
53710;SDS011;39605;52.704;6.752;2024-03-23T05:31:28;28.38;;;7.13;;
53710;SDS011;39605;52.704;6.752;2024-03-23T05:33:54;23.70;;;7.22;;
53710;SDS011;39605;52.704;6.752;2024-03-23T05:36:20;24.33;;;6.88;;
53710;SDS011;39605;52.704;6.752;2024-03-23T05:38:47;27.08;;;6.55;;
53710;SDS011;39605;52.704;6.752;2024-03-23T05:41:13;24.17;;;6.15;;
53710;SDS011;39605;52.704;6.752;2024-03-23T05:43:39;22.98;;;6.22;;
53710;SDS011;39605;52.704;6.752;2024-03-23T05:46:05;24.42;;;6.75;;
53710;SDS011;39605;52.704;6.752;2024-03-23T05:48:32;20.00;;;6.25;;
53710;SDS011;39605;52.704;6.752;2024-03-23T05:50:58;16.30;;;5.35;;
53710;SDS011;39605;52.704;6.752;2024-03-23T05:53:25;20.92;;;5.88;;
53710;SDS011;39605;52.704;6.752;2024-03-23T05:55:51;25.10;;;6.63;;
53710;SDS011;39605;52.704;6.752;2024-03-23T05:58:19;18.85;;;5.57;;
53710;SDS011;39605;52.704;6.752;2024-03-23T06:00:45;22.17;;;6.00;;
53710;SDS011;39605;52.704;6.752;2024-03-23T06:03:11;22.38;;;6.13;;
53710;SDS011;39605;52.704;6.752;2024-03-23T06:05:37;17.48;;;6.18;;
53710;SDS011;39605;52.704;6.752;2024-03-23T06:08:04;25.98;;;6.13;;
53710;SDS011;39605;52.704;6.752;2024-03-23T06:10:30;20.02;;;6.20;;
53710;SDS011;39605;52.704;6.752;2024-03-23T06:12:56;24.67;;;5.75;;
53710;SDS011;39605;52.704;6.752;2024-03-23T06:15:24;21.90;;;6.05;;
53710;SDS011;39605;52.704;6.752;2024-03-23T06:17:50;24.60;;;6.15;;
53710;SDS011;39605;52.704;6.752;2024-03-23T06:20:17;23.48;;;6.63;;
53710;SDS011;39605;52.704;6.752;2024-03-23T06:22:43;26.02;;;5.90;;
53710;SDS011;39605;52.704;6.752;2024-03-23T06:25:09;23.13;;;5.90;;
53710;SDS011;39605;52.704;6.752;2024-03-23T06:27:37;22.42;;;6.18;;
53710;SDS011;39605;52.704;6.752;2024-03-23T06:30:04;22.02;;;6.05;;
53710;SDS011;39605;52.704;6.752;2024-03-23T06:32:30;21.83;;;5.78;;
53710;SDS011;39605;52.704;6.752;2024-03-23T06:34:56;16.33;;;5.30;;
53710;SDS011;39605;52.704;6.752;2024-03-23T06:37:22;17.70;;;5.60;;
53710;SDS011;39605;52.704;6.752;2024-03-23T06:39:48;23.65;;;5.22;;
53710;SDS011;39605;52.704;6.752;2024-03-23T06:42:14;15.77;;;4.13;;
53710;SDS011;39605;52.704;6.752;2024-03-23T06:44:40;18.15;;;4.82;;
53710;SDS011;39605;52.704;6.752;2024-03-23T06:47:06;19.83;;;4.35;;
53710;SDS011;39605;52.704;6.752;2024-03-23T06:49:32;20.02;;;4.20;;
53710;SDS011;39605;52.704;6.752;2024-03-23T06:51:58;14.85;;;3.80;;
53710;SDS011;39605;52.704;6.752;2024-03-23T06:54:25;15.45;;;3.50;;
53710;SDS011;39605;52.704;6.752;2024-03-23T06:56:51;14.68;;;2.65;;
53710;SDS011;39605;52.704;6.752;2024-03-23T06:59:17;15.15;;;2.88;;
53710;SDS011;39605;52.704;6.752;2024-03-23T07:01:43;14.70;;;3.45;;
53710;SDS011;39605;52.704;6.752;2024-03-23T07:04:09;14.70;;;3.22;;
53710;SDS011;39605;52.704;6.752;2024-03-23T07:06:41;12.93;;;3.30;;
53710;SDS011;39605;52.704;6.752;2024-03-23T07:09:07;13.32;;;3.15;;
53710;SDS011;39605;52.704;6.752;2024-03-23T07:11:33;13.60;;;3.63;;
53710;SDS011;39605;52.704;6.752;2024-03-23T07:13:59;16.48;;;3.63;;
53710;SDS011;39605;52.704;6.752;2024-03-23T07:16:29;16.67;;;3.72;;
53710;SDS011;39605;52.704;6.752;2024-03-23T07:18:55;17.75;;;4.38;;
53710;SDS011;39605;52.704;6.752;2024-03-23T07:21:21;15.68;;;4.13;;
53710;SDS011;39605;52.704;6.752;2024-03-23T07:23:47;14.73;;;3.75;;
53710;SDS011;39605;52.704;6.752;2024-03-23T07:26:13;21.95;;;4.90;;
53710;SDS011;39605;52.704;6.752;2024-03-23T07:28:40;20.67;;;4.75;;
53710;SDS011;39605;52.704;6.752;2024-03-23T07:31:10;18.35;;;4.93;;
53710;SDS011;39605;52.704;6.752;2024-03-23T07:33:37;17.52;;;5.35;;
53710;SDS011;39605;52.704;6.752;2024-03-23T07:36:04;16.73;;;4.50;;
53710;SDS011;39605;52.704;6.752;2024-03-23T07:38:30;18.73;;;5.10;;
53710;SDS011;39605;52.704;6.752;2024-03-23T07:41:09;15.40;;;4.32;;
53710;SDS011;39605;52.704;6.752;2024-03-23T07:43:36;15.10;;;3.65;;
53710;SDS011;39605;52.704;6.752;2024-03-23T07:46:02;15.52;;;4.65;;
53710;SDS011;39605;52.704;6.752;2024-03-23T07:48:29;17.55;;;4.25;;
53710;SDS011;39605;52.704;6.752;2024-03-23T07:50:56;22.42;;;4.75;;
53710;SDS011;39605;52.704;6.752;2024-03-23T07:53:22;11.00;;;3.35;;
53710;SDS011;39605;52.704;6.752;2024-03-23T07:55:55;14.23;;;3.13;;
53710;SDS011;39605;52.704;6.752;2024-03-23T07:58:21;11.52;;;2.53;;
53710;SDS011;39605;52.704;6.752;2024-03-23T08:00:47;9.98;;;3.03;;
53710;SDS011;39605;52.704;6.752;2024-03-23T08:03:13;11.95;;;2.55;;
53710;SDS011;39605;52.704;6.752;2024-03-23T08:05:39;11.73;;;2.58;;
53710;SDS011;39605;52.704;6.752;2024-03-23T08:08:06;13.32;;;2.30;;
53710;SDS011;39605;52.704;6.752;2024-03-23T08:10:32;10.27;;;1.58;;
53710;SDS011;39605;52.704;6.752;2024-03-23T08:12:58;9.82;;;1.65;;
53710;SDS011;39605;52.704;6.752;2024-03-23T08:15:24;6.15;;;1.17;;
53710;SDS011;39605;52.704;6.752;2024-03-23T08:17:50;8.27;;;1.55;;
53710;SDS011;39605;52.704;6.752;2024-03-23T08:20:16;8.27;;;1.60;;
53710;SDS011;39605;52.704;6.752;2024-03-23T08:22:42;5.97;;;1.50;;
53710;SDS011;39605;52.704;6.752;2024-03-23T08:25:08;7.97;;;1.30;;
53710;SDS011;39605;52.704;6.752;2024-03-23T08:27:34;8.85;;;1.70;;
53710;SDS011;39605;52.704;6.752;2024-03-23T08:30:00;8.13;;;1.40;;
53710;SDS011;39605;52.704;6.752;2024-03-23T08:32:26;6.93;;;0.90;;
53710;SDS011;39605;52.704;6.752;2024-03-23T08:34:52;6.38;;;0.75;;
53710;SDS011;39605;52.704;6.752;2024-03-23T08:37:18;7.38;;;1.00;;
53710;SDS011;39605;52.704;6.752;2024-03-23T08:39:44;8.15;;;1.42;;
53710;SDS011;39605;52.704;6.752;2024-03-23T08:42:10;5.10;;;0.50;;
53710;SDS011;39605;52.704;6.752;2024-03-23T08:44:36;4.90;;;0.80;;
53710;SDS011;39605;52.704;6.752;2024-03-23T08:47:02;6.25;;;0.80;;
53710;SDS011;39605;52.704;6.752;2024-03-23T08:49:34;4.68;;;0.70;;
53710;SDS011;39605;52.704;6.752;2024-03-23T08:52:00;3.83;;;0.47;;
53710;SDS011;39605;52.704;6.752;2024-03-23T08:54:27;2.60;;;0.43;;
53710;SDS011;39605;52.704;6.752;2024-03-23T08:56:54;2.90;;;0.50;;
53710;SDS011;39605;52.704;6.752;2024-03-23T08:59:20;4.30;;;0.55;;
53710;SDS011;39605;52.704;6.752;2024-03-23T09:01:48;4.57;;;0.55;;
53710;SDS011;39605;52.704;6.752;2024-03-23T09:04:14;5.68;;;0.70;;
53710;SDS011;39605;52.704;6.752;2024-03-23T09:06:44;5.40;;;0.50;;
53710;SDS011;39605;52.704;6.752;2024-03-23T09:09:10;2.92;;;0.50;;
53710;SDS011;39605;52.704;6.752;2024-03-23T09:11:36;4.20;;;0.45;;
53710;SDS011;39605;52.704;6.752;2024-03-23T09:14:02;2.92;;;0.35;;
53710;SDS011;39605;52.704;6.752;2024-03-23T09:16:28;4.93;;;0.60;;
53710;SDS011;39605;52.704;6.752;2024-03-23T09:18:54;3.22;;;0.55;;
53710;SDS011;39605;52.704;6.752;2024-03-23T09:21:20;4.03;;;0.40;;
53710;SDS011;39605;52.704;6.752;2024-03-23T09:23:47;4.18;;;0.50;;
53710;SDS011;39605;52.704;6.752;2024-03-23T09:26:14;4.32;;;0.40;;
53710;SDS011;39605;52.704;6.752;2024-03-23T09:28:40;3.28;;;0.40;;
53710;SDS011;39605;52.704;6.752;2024-03-23T09:31:06;3.28;;;0.50;;
53710;SDS011;39605;52.704;6.752;2024-03-23T09:33:33;4.32;;;0.40;;
53710;SDS011;39605;52.704;6.752;2024-03-23T09:36:06;3.35;;;0.30;;
53710;SDS011;39605;52.704;6.752;2024-03-23T09:38:32;2.13;;;0.35;;
53710;SDS011;39605;52.704;6.752;2024-03-23T09:40:58;4.10;;;0.35;;
53710;SDS011;39605;52.704;6.752;2024-03-23T09:43:25;3.28;;;0.40;;
53710;SDS011;39605;52.704;6.752;2024-03-23T09:45:51;6.72;;;0.70;;
53710;SDS011;39605;52.704;6.752;2024-03-23T09:48:18;4.80;;;0.60;;
53710;SDS011;39605;52.704;6.752;2024-03-23T09:50:44;5.57;;;0.50;;
53710;SDS011;39605;52.704;6.752;2024-03-23T09:53:11;3.33;;;0.43;;
53710;SDS011;39605;52.704;6.752;2024-03-23T09:55:37;2.35;;;0.40;;
53710;SDS011;39605;52.704;6.752;2024-03-23T09:58:04;4.05;;;0.50;;
53710;SDS011;39605;52.704;6.752;2024-03-23T10:00:34;7.53;;;0.65;;
53710;SDS011;39605;52.704;6.752;2024-03-23T10:03:00;4.20;;;0.60;;
53710;SDS011;39605;52.704;6.752;2024-03-23T10:05:27;4.75;;;0.85;;
53710;SDS011;39605;52.704;6.752;2024-03-23T10:07:53;5.15;;;0.60;;
53710;SDS011;39605;52.704;6.752;2024-03-23T10:10:19;5.65;;;0.80;;
53710;SDS011;39605;52.704;6.752;2024-03-23T10:12:47;4.57;;;0.63;;
53710;SDS011;39605;52.704;6.752;2024-03-23T10:15:22;7.63;;;0.85;;
53710;SDS011;39605;52.704;6.752;2024-03-23T10:17:48;4.55;;;0.80;;
53710;SDS011;39605;52.704;6.752;2024-03-23T10:20:19;7.60;;;1.02;;
53710;SDS011;39605;52.704;6.752;2024-03-23T10:22:47;7.55;;;0.77;;
53710;SDS011;39605;52.704;6.752;2024-03-23T10:25:13;5.88;;;0.32;;
53710;SDS011;39605;52.704;6.752;2024-03-23T10:27:39;5.32;;;0.57;;
53710;SDS011;39605;52.704;6.752;2024-03-23T10:30:12;7.45;;;0.60;;
53710;SDS011;39605;52.704;6.752;2024-03-23T10:32:41;6.03;;;0.52;;
53710;SDS011;39605;52.704;6.752;2024-03-23T10:35:17;3.55;;;0.50;;
53710;SDS011;39605;52.704;6.752;2024-03-23T10:37:44;5.20;;;0.50;;
53710;SDS011;39605;52.704;6.752;2024-03-23T10:40:14;3.38;;;0.30;;
53710;SDS011;39605;52.704;6.752;2024-03-23T10:42:40;3.92;;;0.50;;
53710;SDS011;39605;52.704;6.752;2024-03-23T10:45:07;4.72;;;0.50;;
53710;SDS011;39605;52.704;6.752;2024-03-23T10:47:34;6.13;;;0.75;;
53710;SDS011;39605;52.704;6.752;2024-03-23T10:50:00;6.75;;;0.60;;
53710;SDS011;39605;52.704;6.752;2024-03-23T10:52:27;7.75;;;0.80;;
53710;SDS011;39605;52.704;6.752;2024-03-23T10:54:53;9.90;;;0.82;;
53710;SDS011;39605;52.704;6.752;2024-03-23T10:57:20;4.65;;;0.52;;
53710;SDS011;39605;52.704;6.752;2024-03-23T10:59:47;6.30;;;0.70;;
53710;SDS011;39605;52.704;6.752;2024-03-23T11:02:20;8.82;;;0.57;;
53710;SDS011;39605;52.704;6.752;2024-03-23T11:04:46;9.32;;;0.80;;
53710;SDS011;39605;52.704;6.752;2024-03-23T11:09:50;7.88;;;0.90;;
53710;SDS011;39605;52.704;6.752;2024-03-23T11:14:56;10.05;;;1.30;;
53710;SDS011;39605;52.704;6.752;2024-03-23T11:17:24;10.50;;;0.93;;
53710;SDS011;39605;52.704;6.752;2024-03-23T11:19:54;5.53;;;0.90;;
53710;SDS011;39605;52.704;6.752;2024-03-23T11:25:15;3.50;;;0.80;;
53710;SDS011;39605;52.704;6.752;2024-03-23T11:27:42;10.38;;;0.90;;
53710;SDS011;39605;52.704;6.752;2024-03-23T11:30:18;7.38;;;0.73;;
53710;SDS011;39605;52.704;6.752;2024-03-23T11:32:45;10.20;;;0.40;;
53710;SDS011;39605;52.704;6.752;2024-03-23T11:40:28;6.75;;;0.95;;
53710;SDS011;39605;52.704;6.752;2024-03-23T11:42:58;4.70;;;0.70;;
53710;SDS011;39605;52.704;6.752;2024-03-23T11:45:24;4.53;;;0.60;;
53710;SDS011;39605;52.704;6.752;2024-03-23T11:50:37;6.30;;;0.90;;
53710;SDS011;39605;52.704;6.752;2024-03-23T11:53:06;6.88;;;0.95;;
53710;SDS011;39605;52.704;6.752;2024-03-23T11:55:39;9.40;;;1.00;;
53710;SDS011;39605;52.704;6.752;2024-03-23T11:58:05;6.75;;;1.27;;
53710;SDS011;39605;52.704;6.752;2024-03-23T12:00:31;5.60;;;0.88;;
53710;SDS011;39605;52.704;6.752;2024-03-23T12:03:01;6.97;;;0.73;;
53710;SDS011;39605;52.704;6.752;2024-03-23T12:05:28;9.75;;;1.00;;
53710;SDS011;39605;52.704;6.752;2024-03-23T12:07:54;5.57;;;0.60;;
53710;SDS011;39605;52.704;6.752;2024-03-23T12:10:20;6.75;;;0.60;;
53710;SDS011;39605;52.704;6.752;2024-03-23T12:12:58;5.40;;;0.75;;
53710;SDS011;39605;52.704;6.752;2024-03-23T12:15:24;3.17;;;0.75;;
53710;SDS011;39605;52.704;6.752;2024-03-23T12:17:50;5.35;;;0.57;;
53710;SDS011;39605;52.704;6.752;2024-03-23T12:20:16;4.43;;;0.45;;
53710;SDS011;39605;52.704;6.752;2024-03-23T12:22:42;2.78;;;0.20;;
53710;SDS011;39605;52.704;6.752;2024-03-23T12:25:10;4.30;;;0.43;;
53710;SDS011;39605;52.704;6.752;2024-03-23T12:27:36;5.55;;;0.60;;
53710;SDS011;39605;52.704;6.752;2024-03-23T12:30:02;6.03;;;0.82;;
53710;SDS011;39605;52.704;6.752;2024-03-23T12:32:29;5.35;;;0.77;;
53710;SDS011;39605;52.704;6.752;2024-03-23T12:34:55;5.47;;;0.50;;
53710;SDS011;39605;52.704;6.752;2024-03-23T12:37:21;5.03;;;0.50;;
53710;SDS011;39605;52.704;6.752;2024-03-23T12:39:47;4.65;;;0.60;;
53710;SDS011;39605;52.704;6.752;2024-03-23T12:42:13;5.38;;;0.65;;
53710;SDS011;39605;52.704;6.752;2024-03-23T12:44:40;5.95;;;0.90;;
53710;SDS011;39605;52.704;6.752;2024-03-23T12:47:06;2.75;;;0.30;;
53710;SDS011;39605;52.704;6.752;2024-03-23T12:49:32;5.47;;;0.75;;
53710;SDS011;39605;52.704;6.752;2024-03-23T12:51:58;6.53;;;0.50;;
53710;SDS011;39605;52.704;6.752;2024-03-23T12:54:24;5.90;;;1.10;;
53710;SDS011;39605;52.704;6.752;2024-03-23T12:56:51;3.60;;;0.55;;
53710;SDS011;39605;52.704;6.752;2024-03-23T12:59:17;2.80;;;0.22;;
53710;SDS011;39605;52.704;6.752;2024-03-23T13:01:43;4.88;;;0.30;;
53710;SDS011;39605;52.704;6.752;2024-03-23T13:04:09;1.85;;;0.20;;
53710;SDS011;39605;52.704;6.752;2024-03-23T13:06:36;4.07;;;0.20;;
53710;SDS011;39605;52.704;6.752;2024-03-23T13:09:02;1.98;;;0.20;;
53710;SDS011;39605;52.704;6.752;2024-03-23T13:11:28;2.30;;;0.17;;
53710;SDS011;39605;52.704;6.752;2024-03-23T13:13:54;2.90;;;0.20;;
53710;SDS011;39605;52.704;6.752;2024-03-23T13:16:20;5.45;;;0.43;;
53710;SDS011;39605;52.704;6.752;2024-03-23T13:18:46;5.15;;;0.30;;
53710;SDS011;39605;52.704;6.752;2024-03-23T13:21:12;6.28;;;0.40;;
53710;SDS011;39605;52.704;6.752;2024-03-23T13:23:38;8.95;;;0.43;;
53710;SDS011;39605;52.704;6.752;2024-03-23T13:26:07;7.72;;;0.70;;
53710;SDS011;39605;52.704;6.752;2024-03-23T13:28:33;7.75;;;0.90;;
53710;SDS011;39605;52.704;6.752;2024-03-23T13:31:01;6.45;;;0.57;;
53710;SDS011;39605;52.704;6.752;2024-03-23T13:33:29;6.55;;;0.40;;
53710;SDS011;39605;52.704;6.752;2024-03-23T13:35:57;4.03;;;0.60;;
53710;SDS011;39605;52.704;6.752;2024-03-23T13:38:23;5.13;;;0.65;;
53710;SDS011;39605;52.704;6.752;2024-03-23T13:40:53;6.38;;;0.90;;
53710;SDS011;39605;52.704;6.752;2024-03-23T13:43:19;6.20;;;0.60;;
53710;SDS011;39605;52.704;6.752;2024-03-23T13:45:49;6.75;;;0.63;;
53710;SDS011;39605;52.704;6.752;2024-03-23T13:48:17;7.07;;;0.70;;
53710;SDS011;39605;52.704;6.752;2024-03-23T13:50:44;7.57;;;1.08;;
53710;SDS011;39605;52.704;6.752;2024-03-23T13:53:12;5.15;;;0.90;;
53710;SDS011;39605;52.704;6.752;2024-03-23T13:55:45;6.35;;;0.90;;
53710;SDS011;39605;52.704;6.752;2024-03-23T13:58:11;9.75;;;1.00;;
53710;SDS011;39605;52.704;6.752;2024-03-23T14:00:37;5.40;;;0.60;;
53710;SDS011;39605;52.704;6.752;2024-03-23T14:03:03;6.55;;;0.52;;
53710;SDS011;39605;52.704;6.752;2024-03-23T14:05:30;7.20;;;0.50;;
53710;SDS011;39605;52.704;6.752;2024-03-23T14:07:56;4.65;;;0.70;;
53710;SDS011;39605;52.704;6.752;2024-03-23T14:10:22;7.95;;;0.85;;
53710;SDS011;39605;52.704;6.752;2024-03-23T14:12:49;6.53;;;1.00;;
53710;SDS011;39605;52.704;6.752;2024-03-23T14:15:15;6.53;;;0.75;;
53710;SDS011;39605;52.704;6.752;2024-03-23T14:17:41;3.45;;;0.50;;
53710;SDS011;39605;52.704;6.752;2024-03-23T14:20:07;5.07;;;0.68;;
53710;SDS011;39605;52.704;6.752;2024-03-23T14:22:36;6.38;;;0.77;;
53710;SDS011;39605;52.704;6.752;2024-03-23T14:25:02;5.72;;;0.88;;
53710;SDS011;39605;52.704;6.752;2024-03-23T14:27:28;5.55;;;0.70;;
53710;SDS011;39605;52.704;6.752;2024-03-23T14:29:54;6.45;;;0.60;;
53710;SDS011;39605;52.704;6.752;2024-03-23T14:32:21;3.40;;;0.60;;
53710;SDS011;39605;52.704;6.752;2024-03-23T14:34:47;3.60;;;0.55;;
53710;SDS011;39605;52.704;6.752;2024-03-23T14:37:14;3.78;;;0.60;;
53710;SDS011;39605;52.704;6.752;2024-03-23T14:39:41;7.85;;;1.02;;
53710;SDS011;39605;52.704;6.752;2024-03-23T14:42:09;4.35;;;0.70;;
53710;SDS011;39605;52.704;6.752;2024-03-23T14:44:35;3.42;;;0.45;;
53710;SDS011;39605;52.704;6.752;2024-03-23T14:47:01;2.95;;;0.40;;
53710;SDS011;39605;52.704;6.752;2024-03-23T14:49:27;5.57;;;0.70;;
53710;SDS011;39605;52.704;6.752;2024-03-23T14:51:53;4.03;;;0.40;;
53710;SDS011;39605;52.704;6.752;2024-03-23T14:54:19;5.15;;;0.68;;
53710;SDS011;39605;52.704;6.752;2024-03-23T14:56:45;7.90;;;0.70;;
53710;SDS011;39605;52.704;6.752;2024-03-23T14:59:12;6.53;;;0.68;;
53710;SDS011;39605;52.704;6.752;2024-03-23T15:01:38;3.42;;;0.50;;
53710;SDS011;39605;52.704;6.752;2024-03-23T15:04:04;5.40;;;0.52;;
53710;SDS011;39605;52.704;6.752;2024-03-23T15:06:30;6.82;;;0.55;;
53710;SDS011;39605;52.704;6.752;2024-03-23T15:08:58;4.15;;;0.70;;
53710;SDS011;39605;52.704;6.752;2024-03-23T15:11:24;5.63;;;0.70;;
53710;SDS011;39605;52.704;6.752;2024-03-23T15:13:50;4.93;;;0.57;;
53710;SDS011;39605;52.704;6.752;2024-03-23T15:16:17;4.65;;;0.60;;
53710;SDS011;39605;52.704;6.752;2024-03-23T15:18:45;6.05;;;0.60;;
53710;SDS011;39605;52.704;6.752;2024-03-23T15:21:11;5.35;;;0.63;;
53710;SDS011;39605;52.704;6.752;2024-03-23T15:23:39;5.80;;;0.77;;
53710;SDS011;39605;52.704;6.752;2024-03-23T15:26:08;5.53;;;0.50;;
53710;SDS011;39605;52.704;6.752;2024-03-23T15:28:34;4.70;;;0.73;;
53710;SDS011;39605;52.704;6.752;2024-03-23T15:31:08;6.70;;;0.60;;
53710;SDS011;39605;52.704;6.752;2024-03-23T15:33:35;6.05;;;0.80;;
53710;SDS011;39605;52.704;6.752;2024-03-23T15:36:04;7.05;;;0.57;;
53710;SDS011;39605;52.704;6.752;2024-03-23T15:38:31;4.97;;;0.70;;
53710;SDS011;39605;52.704;6.752;2024-03-23T15:40:57;12.55;;;1.38;;
53710;SDS011;39605;52.704;6.752;2024-03-23T15:43:23;7.18;;;0.63;;
53710;SDS011;39605;52.704;6.752;2024-03-23T15:45:56;5.30;;;0.50;;